createdAt,value
2019-01-19T00:02:13.455Z,9.37
2019-01-19T00:05:26.895Z,10.07
2019-01-19T00:08:21.816Z,7.67
2019-01-19T00:11:37.945Z,8.33
2019-01-19T00:14:34.274Z,8.17
2019-01-19T00:17:50.866Z,6.40
2019-01-19T00:20:45.375Z,6.63
2019-01-19T00:23:50.462Z,6.03
2019-01-19T00:26:50.311Z,6.37
2019-01-19T00:29:29.513Z,7.47
2019-01-19T00:32:18.366Z,8.23
2019-01-19T00:35:17.635Z,6.93
2019-01-19T00:38:10.202Z,6.77
2019-01-19T00:41:23.430Z,7.90
2019-01-19T00:44:52.246Z,6.40
2019-01-19T00:47:48.180Z,6.40
2019-01-19T00:50:58.855Z,6.20
2019-01-19T00:53:38.581Z,6.83
2019-01-19T00:57:00.224Z,6.60
2019-01-19T00:59:34.019Z,6.43
2019-01-19T01:02:59.532Z,7.03
2019-01-19T01:05:49.531Z,7.07
2019-01-19T01:08:53.225Z,6.47
2019-01-19T01:11:54.910Z,7.03
2019-01-19T01:14:54.439Z,6.53
2019-01-19T01:18:04.927Z,5.33
2019-01-19T01:21:17.190Z,6.70
2019-01-19T01:24:30.075Z,6.17
2019-01-19T01:27:37.816Z,6.90
2019-01-19T01:30:38.972Z,8.20
2019-01-19T01:33:41.761Z,7.00
2019-01-19T01:36:57.459Z,8.37
2019-01-19T01:40:10.835Z,9.60
2019-01-19T01:43:16.710Z,10.13
2019-01-19T01:45:59.309Z,12.63
2019-01-19T01:48:54.657Z,7.63
2019-01-19T01:52:16.075Z,9.70
2019-01-19T01:54:56.989Z,10.33
2019-01-19T01:57:51.057Z,6.30
2019-01-19T02:00:54.087Z,6.60
2019-01-19T02:04:13.935Z,10.03
2019-01-19T02:07:16.738Z,10.17
2019-01-19T02:10:39.189Z,9.00
2019-01-19T02:13:46.293Z,12.13
2019-01-19T02:17:02.754Z,10.70
2019-01-19T02:19:52.592Z,8.40
2019-01-19T02:23:18.529Z,8.80
2019-01-19T02:26:28.823Z,12.83
2019-01-19T02:29:48.168Z,13.33
2019-01-19T02:32:51.559Z,10.73
2019-01-19T02:36:05.397Z,10.80
2019-01-19T02:39:15.887Z,12.13
2019-01-19T02:42:17.163Z,13.43
2019-01-19T02:45:29.842Z,11.07
2019-01-19T02:48:17.695Z,11.63
2019-01-19T02:51:14.822Z,15.87
2019-01-19T02:54:22.472Z,8.37
2019-01-19T02:57:30.422Z,10.97
2019-01-19T03:00:30.462Z,14.67
2019-01-19T03:03:45.275Z,12.40
2019-01-19T03:06:43.361Z,10.03
2019-01-19T03:09:29.267Z,11.10
2019-01-19T03:12:41.090Z,8.27
2019-01-19T03:16:06.605Z,8.40
2019-01-19T03:19:05.272Z,8.27
2019-01-19T03:21:59.931Z,10.70
2019-01-19T03:24:44.281Z,8.23
2019-01-19T03:27:40.441Z,9.67
2019-01-19T03:30:52.609Z,13.13
2019-01-19T03:33:41.788Z,11.13
2019-01-19T03:36:47.794Z,11.37
2019-01-19T03:39:57.180Z,10.37
2019-01-19T03:42:52.424Z,10.13
2019-01-19T03:45:54.746Z,15.90
2019-01-19T03:49:19.365Z,15.57
2019-01-19T03:52:17.254Z,12.83
2019-01-19T03:55:30.725Z,10.83
2019-01-19T03:58:41.087Z,16.27
2019-01-19T04:01:41.422Z,17.40
2019-01-19T04:04:29.440Z,10.77
2019-01-19T04:07:32.847Z,19.70
2019-01-19T04:10:43.176Z,14.07
2019-01-19T04:13:41.368Z,10.43
2019-01-19T04:16:43.508Z,15.43
2019-01-19T04:20:12.241Z,13.83
2019-01-19T04:22:48.372Z,8.10
2019-01-19T04:25:43.061Z,7.37
2019-01-19T04:28:14.676Z,7.50
2019-01-19T04:30:44.079Z,6.63
2019-01-19T04:33:13.587Z,7.67
2019-01-19T04:35:42.957Z,7.10
2019-01-19T04:38:12.331Z,6.60
2019-01-19T04:40:41.814Z,8.37
2019-01-19T04:43:11.180Z,7.13
2019-01-19T04:45:40.663Z,6.93
2019-01-19T04:48:10.123Z,7.80
2019-01-19T04:50:39.564Z,6.63
2019-01-19T04:53:08.943Z,7.13
2019-01-19T04:55:38.334Z,7.33
2019-01-19T04:58:07.710Z,6.97
2019-01-19T05:00:37.212Z,6.73
2019-01-19T05:03:07.135Z,6.83
2019-01-19T05:05:36.491Z,7.27
2019-01-19T05:08:05.860Z,6.47
2019-01-19T05:10:35.940Z,6.57
2019-01-19T05:13:05.392Z,6.00
2019-01-19T05:15:34.863Z,6.20
2019-01-19T05:18:05.571Z,6.10
2019-01-19T05:20:34.961Z,6.27
2019-01-19T05:23:05.356Z,6.37
2019-01-19T05:25:34.833Z,5.87
2019-01-19T05:28:04.182Z,6.00
2019-01-19T05:30:33.518Z,5.40
2019-01-19T05:33:02.985Z,5.73
2019-01-19T05:35:32.418Z,5.43
2019-01-19T05:38:02.056Z,5.23
2019-01-19T05:40:31.794Z,5.67
2019-01-19T05:43:01.251Z,5.40
2019-01-19T05:45:30.687Z,4.60
2019-01-19T05:48:00.132Z,5.30
2019-01-19T05:50:29.590Z,5.80
2019-01-19T05:52:59.040Z,6.93
2019-01-19T05:55:28.513Z,6.50
2019-01-19T05:57:57.937Z,6.77
2019-01-19T06:00:35.391Z,8.63
2019-01-19T06:03:05.222Z,8.07
2019-01-19T06:05:34.696Z,6.33
2019-01-19T06:08:04.293Z,8.63
2019-01-19T06:10:33.658Z,10.67
2019-01-19T06:13:03.098Z,7.27
2019-01-19T06:15:32.490Z,10.13
2019-01-19T06:18:01.926Z,14.57
2019-01-19T06:20:31.240Z,7.43
2019-01-19T06:23:00.617Z,5.87
2019-01-19T06:25:29.987Z,6.47
2019-01-19T06:27:59.404Z,11.37
2019-01-19T06:30:28.821Z,9.27
2019-01-19T06:32:58.291Z,7.83
2019-01-19T06:35:27.986Z,7.50
2019-01-19T06:37:57.454Z,7.00
2019-01-19T06:40:26.879Z,6.60
2019-01-19T06:42:56.269Z,8.30
2019-01-19T06:45:26.756Z,7.40
2019-01-19T06:47:56.098Z,7.00
2019-01-19T06:50:25.541Z,6.57
2019-01-19T06:52:54.919Z,5.93
2019-01-19T06:55:27.194Z,5.57
2019-01-19T06:57:56.639Z,5.57
2019-01-19T07:00:26.135Z,5.53
2019-01-19T07:02:55.530Z,5.83
2019-01-19T07:05:24.882Z,5.70
2019-01-19T07:07:54.303Z,9.07
2019-01-19T07:10:24.940Z,9.90
2019-01-19T07:12:54.375Z,7.93
2019-01-19T07:15:23.837Z,7.43
2019-01-19T07:17:53.175Z,8.17
2019-01-19T07:20:28.282Z,7.50
2019-01-19T07:22:57.647Z,5.43
2019-01-19T07:25:26.995Z,5.23
2019-01-19T07:27:56.428Z,4.67
2019-01-19T07:30:25.792Z,4.77
2019-01-19T07:32:55.229Z,5.80
2019-01-19T07:35:24.598Z,5.10
2019-01-19T07:37:53.964Z,7.37
2019-01-19T07:40:23.398Z,8.73
2019-01-19T07:42:57.563Z,8.83
2019-01-19T07:45:26.961Z,6.83
2019-01-19T07:47:56.444Z,17.17
2019-01-19T07:50:25.870Z,19.20
2019-01-19T07:52:55.304Z,15.83
2019-01-19T07:55:24.710Z,9.90
2019-01-19T07:57:54.170Z,8.87
2019-01-19T08:00:25.980Z,7.43
2019-01-19T08:02:55.440Z,5.10
2019-01-19T08:05:24.930Z,8.03
2019-01-19T08:07:54.258Z,9.13
2019-01-19T08:10:23.626Z,23.97
2019-01-19T08:12:53.053Z,10.27
2019-01-19T08:15:24.461Z,5.23
2019-01-19T08:17:53.918Z,8.13
2019-01-19T08:20:23.281Z,7.87
2019-01-19T08:22:52.823Z,6.63
2019-01-19T08:25:22.224Z,6.33
2019-01-19T08:27:52.972Z,6.47
2019-01-19T08:30:24.728Z,7.53
2019-01-19T08:32:54.193Z,14.17
2019-01-19T08:35:23.611Z,12.07
2019-01-19T08:37:53.026Z,9.60
2019-01-19T08:40:27.921Z,10.73
2019-01-19T08:43:03.752Z,8.57
2019-01-19T08:45:33.191Z,7.80
2019-01-19T08:48:03.347Z,10.70
2019-01-19T08:50:32.741Z,11.70
2019-01-19T08:53:02.231Z,24.00
2019-01-19T08:55:31.610Z,17.67
2019-01-19T08:58:00.978Z,13.87
2019-01-19T09:00:30.497Z,45.23
2019-01-19T09:02:59.934Z,12.47
2019-01-19T09:05:29.384Z,21.03
2019-01-19T09:07:58.785Z,17.23
2019-01-19T09:10:28.184Z,44.07
2019-01-19T09:12:57.555Z,12.60
2019-01-19T09:15:27.086Z,18.60
2019-01-19T09:17:56.513Z,12.63
2019-01-19T09:20:25.958Z,13.63
2019-01-19T09:23:00.589Z,14.00
2019-01-19T09:25:29.961Z,9.70
2019-01-19T09:27:59.399Z,9.23
2019-01-19T09:30:28.816Z,14.53
2019-01-19T09:32:58.394Z,22.00
2019-01-19T09:35:27.818Z,80.87
2019-01-19T09:37:57.250Z,43.83
2019-01-19T09:40:26.685Z,14.70
2019-01-19T09:42:56.130Z,25.27
2019-01-19T09:45:25.531Z,16.70
2019-01-19T09:47:54.975Z,13.97
2019-01-19T09:50:24.381Z,32.33
2019-01-19T09:52:53.913Z,13.10
2019-01-19T09:55:23.361Z,24.60
2019-01-19T09:57:52.770Z,18.10
2019-01-19T10:00:22.336Z,24.23
2019-01-19T10:02:51.714Z,19.30
2019-01-19T10:05:22.184Z,16.17
2019-01-19T10:07:51.710Z,24.97
2019-01-19T10:10:21.146Z,13.63
2019-01-19T10:12:50.582Z,20.80
2019-01-19T10:15:20.057Z,12.03
2019-01-19T10:17:49.507Z,12.10
2019-01-19T10:20:21.249Z,12.57
2019-01-19T10:22:50.678Z,17.50
2019-01-19T10:25:20.257Z,12.43
2019-01-19T10:27:49.732Z,12.93
2019-01-19T10:30:22.769Z,16.53
2019-01-19T10:32:52.151Z,14.60
2019-01-19T10:35:21.510Z,13.53
2019-01-19T10:37:56.289Z,16.97
2019-01-19T10:40:22.166Z,17.60
2019-01-19T10:42:51.607Z,37.00
2019-01-19T10:45:23.213Z,46.07
2019-01-19T10:47:52.646Z,10.00
2019-01-19T10:50:22.169Z,10.17
2019-01-19T10:52:51.653Z,11.30
2019-01-19T10:55:21.324Z,10.80
2019-01-19T10:57:50.736Z,12.83
2019-01-19T11:00:23.254Z,9.40
2019-01-19T11:02:52.726Z,10.03
2019-01-19T11:05:22.199Z,9.30
2019-01-19T11:07:51.724Z,15.60
2019-01-19T11:10:26.193Z,11.80
2019-01-19T11:12:55.679Z,12.47
2019-01-19T11:15:25.441Z,10.17
2019-01-19T11:17:55.097Z,8.43
2019-01-19T11:20:26.513Z,10.03
2019-01-19T11:22:56.930Z,11.20
2019-01-19T11:25:26.415Z,9.50
2019-01-19T11:27:56.030Z,9.70
2019-01-19T11:30:27.150Z,12.43
2019-01-19T11:32:56.582Z,9.13
2019-01-19T11:35:26.008Z,9.90
2019-01-19T11:37:55.694Z,9.63
2019-01-19T11:40:27.498Z,10.90
2019-01-19T11:42:56.959Z,21.43
2019-01-19T11:45:26.383Z,10.43
2019-01-19T11:47:55.892Z,17.67
2019-01-19T11:50:25.354Z,8.80
2019-01-19T11:52:54.689Z,13.73
2019-01-19T11:55:24.199Z,9.43
2019-01-19T11:57:55.937Z,7.23
2019-01-19T12:00:27.581Z,8.57
2019-01-19T12:02:57.030Z,8.63
2019-01-19T12:05:26.521Z,8.03
2019-01-19T12:07:56.009Z,9.43
2019-01-19T12:10:27.451Z,9.57
2019-01-19T12:12:57.588Z,8.33
2019-01-19T12:15:27.755Z,9.07
2019-01-19T12:17:57.302Z,9.37
2019-01-19T12:20:41.590Z,21.27
2019-01-19T12:23:11.106Z,15.80
2019-01-19T12:25:42.241Z,50.50
2019-01-19T12:28:11.648Z,23.73
2019-01-19T12:30:41.450Z,13.23
2019-01-19T12:33:11.149Z,29.20
2019-01-19T12:35:40.689Z,11.77
2019-01-19T12:38:10.188Z,12.90
2019-01-19T12:40:39.617Z,18.60
2019-01-19T12:43:17.675Z,11.43
2019-01-19T12:45:58.773Z,9.87
2019-01-19T12:48:28.167Z,10.97
2019-01-19T12:50:57.565Z,6.77
2019-01-19T12:53:27.501Z,14.33
2019-01-19T12:55:56.975Z,21.53
2019-01-19T12:58:26.445Z,19.07
2019-01-19T13:00:55.867Z,18.13
2019-01-19T13:03:25.571Z,11.03
2019-01-19T13:06:36.964Z,9.57
2019-01-19T13:09:20.739Z,16.83
2019-01-19T13:12:38.195Z,30.03
2019-01-19T13:15:39.886Z,24.13
2019-01-19T13:18:37.026Z,16.63
2019-01-19T13:21:46.598Z,14.50
2019-01-19T13:25:00.308Z,12.03
2019-01-19T13:28:09.188Z,9.73
2019-01-19T13:31:37.780Z,13.30
2019-01-19T13:34:48.470Z,31.10
2019-01-19T13:38:10.148Z,20.50
2019-01-19T13:40:55.560Z,9.67
2019-01-19T13:43:58.672Z,10.10
2019-01-19T13:47:04.706Z,13.27
2019-01-19T13:50:18.068Z,9.03
2019-01-19T13:53:37.965Z,15.70
2019-01-19T13:57:06.524Z,47.03
2019-01-19T14:00:00.973Z,15.57
2019-01-19T14:02:49.550Z,46.33
2019-01-19T14:06:15.600Z,14.03
2019-01-19T14:09:20.566Z,9.70
2019-01-19T14:12:32.795Z,12.00
2019-01-19T14:15:27.048Z,9.57
2019-01-19T14:18:21.369Z,9.53
2019-01-19T14:21:40.925Z,13.67
2019-01-19T14:24:38.371Z,11.53
2019-01-19T14:27:29.784Z,11.80
2019-01-19T14:30:54.075Z,27.03
2019-01-19T14:33:51.719Z,18.97
2019-01-19T14:37:00.942Z,38.53
2019-01-19T14:40:13.362Z,12.30
2019-01-19T14:43:29.586Z,30.77
2019-01-19T14:46:22.241Z,33.30
2019-01-19T14:49:44.839Z,36.93
2019-01-19T14:52:42.732Z,25.53
2019-01-19T14:55:46.255Z,52.30
2019-01-19T14:58:51.813Z,24.77
2019-01-19T15:01:57.226Z,42.00
2019-01-19T15:05:24.171Z,30.07
2019-01-19T15:08:34.153Z,64.77
2019-01-19T15:11:55.057Z,77.80
2019-01-19T15:15:20.770Z,77.43
2019-01-19T15:18:23.610Z,54.43
2019-01-19T15:21:08.161Z,35.33
2019-01-19T15:24:14.109Z,74.53
2019-01-19T15:27:13.083Z,104.27
2019-01-19T15:30:24.670Z,60.53
2019-01-19T15:33:38.752Z,116.00
2019-01-19T15:36:25.028Z,200.23
2019-01-19T15:39:39.529Z,55.60
2019-01-19T15:43:00.924Z,82.57
2019-01-19T15:46:06.162Z,48.47
2019-01-19T15:48:50.003Z,64.87
2019-01-19T15:51:56.463Z,61.83
2019-01-19T15:55:02.874Z,71.70
2019-01-19T15:57:58.333Z,25.10
2019-01-19T16:01:17.578Z,25.47
2019-01-19T16:04:35.784Z,26.97
2019-01-19T16:07:46.487Z,71.23
2019-01-19T16:11:01.254Z,58.10
2019-01-19T16:14:06.725Z,19.30
2019-01-19T16:17:08.377Z,29.27
2019-01-19T16:20:24.681Z,17.13
2019-01-19T16:23:31.103Z,17.37
2019-01-19T16:26:37.383Z,82.27
2019-01-19T16:29:49.835Z,82.63
2019-01-19T16:33:15.547Z,14.23
2019-01-19T16:36:15.842Z,25.40
2019-01-19T16:39:26.548Z,17.80
2019-01-19T16:42:18.199Z,23.93
2019-01-19T16:45:24.729Z,21.20
2019-01-19T16:48:26.631Z,15.80
2019-01-19T16:51:37.272Z,18.97
2019-01-19T16:54:54.161Z,21.73
2019-01-19T16:58:13.839Z,18.00
2019-01-19T17:01:24.066Z,17.47
2019-01-19T17:04:55.611Z,16.07
2019-01-19T17:08:05.172Z,18.10
2019-01-19T17:11:17.919Z,16.60
2019-01-19T17:14:17.527Z,24.53
2019-01-19T17:17:06.410Z,61.73
2019-01-19T17:20:17.372Z,52.37
2019-01-19T17:23:03.120Z,58.27
2019-01-19T17:26:04.706Z,217.70
2019-01-19T17:28:49.395Z,33.30
2019-01-19T17:31:51.426Z,14.67
2019-01-19T17:34:55.069Z,38.00
2019-01-19T17:37:35.503Z,36.77
2019-01-19T17:40:44.832Z,15.83
2019-01-19T17:43:31.182Z,20.13
2019-01-19T17:46:47.621Z,20.27
2019-01-19T17:49:52.105Z,21.30
2019-01-19T17:52:47.353Z,27.07
2019-01-19T17:55:41.765Z,26.50
2019-01-19T17:58:47.520Z,54.00
2019-01-19T18:01:52.111Z,25.53
2019-01-19T18:04:32.140Z,21.67
2019-01-19T18:07:37.955Z,20.17
2019-01-19T18:10:35.792Z,20.63
2019-01-19T18:14:01.495Z,25.27
2019-01-19T18:17:11.811Z,24.37
2019-01-19T18:20:27.403Z,22.97
2019-01-19T18:23:32.710Z,22.53
2019-01-19T18:26:49.104Z,18.00
2019-01-19T18:30:01.574Z,17.60
2019-01-19T18:33:11.011Z,15.83
2019-01-19T18:36:33.390Z,15.00
2019-01-19T18:39:54.782Z,16.63
2019-01-19T18:42:52.163Z,14.23
2019-01-19T18:45:55.614Z,18.63
2019-01-19T18:49:11.182Z,16.53
2019-01-19T18:52:23.209Z,17.90
2019-01-19T18:55:29.561Z,17.13
2019-01-19T18:58:27.325Z,15.23
2019-01-19T19:01:08.037Z,20.13
2019-01-19T19:04:17.570Z,18.87
2019-01-19T19:07:18.318Z,23.43
2019-01-19T19:10:17.349Z,25.67
2019-01-19T19:13:10.727Z,22.47
2019-01-19T19:16:39.396Z,22.83
2019-01-19T19:19:55.806Z,21.70
2019-01-19T19:22:53.822Z,22.73
2019-01-19T19:26:02.346Z,23.53
2019-01-19T19:28:50.557Z,27.17
2019-01-19T19:31:51.234Z,26.37
2019-01-19T19:34:52.843Z,25.30
2019-01-19T19:38:11.015Z,26.87
2019-01-19T19:41:30.032Z,24.63
2019-01-19T19:44:51.614Z,30.50
2019-01-19T19:47:53.056Z,26.90
2019-01-19T19:51:05.540Z,31.40
2019-01-19T19:53:35.259Z,40.80
2019-01-19T19:56:03.346Z,48.70
2019-01-19T19:58:33.085Z,21.23
2019-01-19T20:01:02.935Z,21.47
2019-01-19T20:03:32.626Z,22.73
2019-01-19T20:06:02.285Z,19.00
2019-01-19T20:08:31.981Z,22.10
2019-01-19T20:11:01.646Z,24.83
2019-01-19T20:13:31.378Z,19.70
2019-01-19T20:16:03.290Z,21.43
2019-01-19T20:18:33.110Z,18.83
2019-01-19T20:21:02.866Z,18.20
2019-01-19T20:23:32.634Z,16.60
2019-01-19T20:26:02.321Z,17.40
2019-01-19T20:28:32.333Z,14.40
2019-01-19T20:31:02.116Z,19.63
2019-01-19T20:33:31.782Z,18.03
2019-01-19T20:36:01.463Z,17.03
2019-01-19T20:38:31.463Z,21.77
2019-01-19T20:41:01.211Z,24.20
2019-01-19T20:43:30.944Z,23.07
2019-01-19T20:46:00.811Z,23.30
2019-01-19T20:48:30.590Z,25.17
2019-01-19T20:51:00.304Z,27.27
2019-01-19T20:53:30.050Z,33.73
2019-01-19T20:55:59.711Z,37.70
2019-01-19T20:58:29.387Z,34.13
2019-01-19T21:00:59.140Z,30.70
2019-01-19T21:03:28.816Z,36.37
2019-01-19T21:05:58.580Z,27.63
2019-01-19T21:08:28.261Z,26.00
2019-01-19T21:10:57.993Z,24.63
2019-01-19T21:13:27.663Z,24.10
2019-01-19T21:15:57.444Z,24.03
2019-01-19T21:18:27.104Z,28.03
2019-01-19T21:20:56.774Z,22.17
2019-01-19T21:23:26.872Z,21.57
2019-01-19T21:25:56.644Z,21.07
2019-01-19T21:28:26.306Z,24.80
2019-01-19T21:30:55.789Z,23.70
2019-01-19T21:33:25.257Z,28.63
2019-01-19T21:35:54.595Z,26.27
2019-01-19T21:38:23.983Z,31.00
2019-01-19T21:40:53.351Z,33.07
2019-01-19T21:43:22.776Z,27.33
2019-01-19T21:45:52.303Z,36.57
2019-01-19T21:48:21.755Z,24.87
2019-01-19T21:50:51.123Z,31.47
2019-01-19T21:53:20.577Z,27.47
2019-01-19T21:55:49.961Z,26.57
2019-01-19T21:58:19.345Z,32.70
2019-01-19T22:00:48.765Z,28.73
2019-01-19T22:03:18.098Z,32.10
2019-01-19T22:05:49.866Z,33.17
2019-01-19T22:08:18.685Z,32.10
2019-01-19T22:10:48.450Z,34.20
2019-01-19T22:13:17.888Z,33.63
2019-01-19T22:15:47.389Z,35.17
2019-01-19T22:18:16.773Z,32.90
2019-01-19T22:20:46.150Z,27.23
2019-01-19T22:23:15.603Z,27.53
2019-01-19T22:25:44.945Z,26.23
2019-01-19T22:28:14.362Z,29.07
2019-01-19T22:30:43.729Z,50.30
2019-01-19T22:33:13.963Z,58.90
2019-01-19T22:35:43.894Z,52.97
2019-01-19T22:38:13.288Z,42.23
2019-01-19T22:40:42.713Z,39.07
2019-01-19T22:43:15.457Z,31.83
2019-01-19T22:45:45.719Z,32.97
2019-01-19T22:48:15.093Z,30.40
2019-01-19T22:50:44.469Z,26.90
2019-01-19T22:53:13.971Z,24.77
2019-01-19T22:55:43.360Z,26.37
2019-01-19T22:58:12.779Z,31.00
2019-01-19T23:01:07.671Z,29.60
2019-01-19T23:03:38.416Z,26.57
2019-01-19T23:06:07.838Z,24.03
2019-01-19T23:08:37.278Z,27.17
2019-01-19T23:11:06.665Z,32.67
2019-01-19T23:13:36.116Z,30.80
2019-01-19T23:16:05.832Z,31.03
2019-01-19T23:18:35.298Z,30.50
2019-01-19T23:21:04.838Z,36.60
2019-01-19T23:23:34.325Z,34.30
2019-01-19T23:26:04.055Z,47.40
2019-01-19T23:28:33.428Z,45.83
2019-01-19T23:31:02.911Z,45.63
2019-01-19T23:33:32.306Z,44.13
2019-01-19T23:36:01.734Z,47.70
2019-01-19T23:38:31.243Z,46.80
2019-01-19T23:41:00.656Z,41.63
2019-01-19T23:43:30.108Z,47.17
2019-01-19T23:45:59.581Z,42.43
2019-01-19T23:48:28.950Z,41.80
2019-01-19T23:50:58.442Z,44.07
2019-01-19T23:53:27.965Z,48.60
2019-01-19T23:55:57.303Z,48.10
2019-01-19T23:58:26.688Z,40.83
